sensor_id;sensor_type;location;lat;lon;timestamp;P1;durP1;ratioP1;P2;durP2;ratioP2
71610;SDS011;59459;51.172;6.682;2023-03-14T00:01:43;7.00;;;1.40;;
71610;SDS011;59459;51.172;6.682;2023-03-14T00:04:08;8.30;;;0.90;;
71610;SDS011;59459;51.172;6.682;2023-03-14T00:06:34;5.80;;;1.03;;
71610;SDS011;59459;51.172;6.682;2023-03-14T00:08:59;4.75;;;1.00;;
71610;SDS011;59459;51.172;6.682;2023-03-14T00:11:25;8.17;;;1.10;;
71610;SDS011;59459;51.172;6.682;2023-03-14T00:13:51;7.32;;;1.30;;
71610;SDS011;59459;51.172;6.682;2023-03-14T00:16:17;7.10;;;1.17;;
71610;SDS011;59459;51.172;6.682;2023-03-14T00:18:42;8.87;;;1.00;;
71610;SDS011;59459;51.172;6.682;2023-03-14T00:21:08;6.87;;;1.23;;
71610;SDS011;59459;51.172;6.682;2023-03-14T00:23:34;6.57;;;0.70;;
71610;SDS011;59459;51.172;6.682;2023-03-14T00:26:01;5.85;;;1.02;;
71610;SDS011;59459;51.172;6.682;2023-03-14T00:28:26;5.57;;;1.10;;
71610;SDS011;59459;51.172;6.682;2023-03-14T00:30:52;7.60;;;1.00;;
71610;SDS011;59459;51.172;6.682;2023-03-14T00:33:17;8.67;;;1.10;;
71610;SDS011;59459;51.172;6.682;2023-03-14T00:35:42;8.50;;;1.70;;
71610;SDS011;59459;51.172;6.682;2023-03-14T00:38:08;9.87;;;1.47;;
71610;SDS011;59459;51.172;6.682;2023-03-14T00:40:33;5.53;;;1.67;;
71610;SDS011;59459;51.172;6.682;2023-03-14T00:42:58;7.17;;;0.90;;
71610;SDS011;59459;51.172;6.682;2023-03-14T00:45:23;4.17;;;1.10;;
71610;SDS011;59459;51.172;6.682;2023-03-14T00:47:48;6.53;;;0.50;;
71610;SDS011;59459;51.172;6.682;2023-03-14T00:50:14;5.17;;;0.60;;
71610;SDS011;59459;51.172;6.682;2023-03-14T00:52:39;4.80;;;0.83;;
71610;SDS011;59459;51.172;6.682;2023-03-14T00:55:04;3.60;;;0.83;;
71610;SDS011;59459;51.172;6.682;2023-03-14T00:57:29;10.80;;;0.70;;
71610;SDS011;59459;51.172;6.682;2023-03-14T00:59:55;6.60;;;0.40;;
71610;SDS011;59459;51.172;6.682;2023-03-14T01:02:20;4.40;;;0.70;;
71610;SDS011;59459;51.172;6.682;2023-03-14T01:04:47;4.27;;;0.60;;
71610;SDS011;59459;51.172;6.682;2023-03-14T01:07:12;5.45;;;0.57;;
71610;SDS011;59459;51.172;6.682;2023-03-14T01:09:37;3.17;;;0.40;;
71610;SDS011;59459;51.172;6.682;2023-03-14T01:12:02;2.53;;;0.40;;
71610;SDS011;59459;51.172;6.682;2023-03-14T01:14:27;4.53;;;0.50;;
71610;SDS011;59459;51.172;6.682;2023-03-14T01:16:53;3.90;;;0.60;;
71610;SDS011;59459;51.172;6.682;2023-03-14T01:19:18;4.27;;;0.50;;
71610;SDS011;59459;51.172;6.682;2023-03-14T01:21:43;4.83;;;0.70;;
71610;SDS011;59459;51.172;6.682;2023-03-14T01:24:10;4.50;;;0.70;;
71610;SDS011;59459;51.172;6.682;2023-03-14T01:26:36;3.50;;;0.90;;
71610;SDS011;59459;51.172;6.682;2023-03-14T01:29:01;6.67;;;0.70;;
71610;SDS011;59459;51.172;6.682;2023-03-14T01:31:27;5.70;;;1.00;;
71610;SDS011;59459;51.172;6.682;2023-03-14T01:33:52;4.53;;;0.97;;
71610;SDS011;59459;51.172;6.682;2023-03-14T01:36:17;8.60;;;0.93;;
71610;SDS011;59459;51.172;6.682;2023-03-14T01:38:43;3.17;;;0.70;;
71610;SDS011;59459;51.172;6.682;2023-03-14T01:41:12;6.93;;;0.70;;
71610;SDS011;59459;51.172;6.682;2023-03-14T01:43:37;5.82;;;0.65;;
71610;SDS011;59459;51.172;6.682;2023-03-14T01:51:02;7.27;;;0.70;;
71610;SDS011;59459;51.172;6.682;2023-03-14T01:53:27;6.68;;;0.70;;
71610;SDS011;59459;51.172;6.682;2023-03-14T01:55:53;8.40;;;0.73;;
71610;SDS011;59459;51.172;6.682;2023-03-14T01:58:21;4.80;;;0.77;;
71610;SDS011;59459;51.172;6.682;2023-03-14T02:00:46;5.20;;;0.90;;
71610;SDS011;59459;51.172;6.682;2023-03-14T02:03:14;9.23;;;0.97;;
71610;SDS011;59459;51.172;6.682;2023-03-14T02:05:41;4.50;;;0.85;;
71610;SDS011;59459;51.172;6.682;2023-03-14T02:08:08;9.60;;;0.68;;
71610;SDS011;59459;51.172;6.682;2023-03-14T02:10:42;6.68;;;0.93;;
71610;SDS011;59459;51.172;6.682;2023-03-14T02:13:08;3.75;;;0.80;;
71610;SDS011;59459;51.172;6.682;2023-03-14T02:15:33;8.23;;;0.93;;
71610;SDS011;59459;51.172;6.682;2023-03-14T02:17:59;4.80;;;0.70;;
71610;SDS011;59459;51.172;6.682;2023-03-14T02:22:50;5.60;;;0.80;;
71610;SDS011;59459;51.172;6.682;2023-03-14T02:25:28;4.13;;;0.60;;
71610;SDS011;59459;51.172;6.682;2023-03-14T02:27:56;5.05;;;0.93;;
71610;SDS011;59459;51.172;6.682;2023-03-14T02:30:25;6.00;;;1.10;;
71610;SDS011;59459;51.172;6.682;2023-03-14T02:32:51;6.20;;;1.23;;
71610;SDS011;59459;51.172;6.682;2023-03-14T02:35:21;9.35;;;1.40;;
71610;SDS011;59459;51.172;6.682;2023-03-14T02:37:48;5.13;;;1.15;;
71610;SDS011;59459;51.172;6.682;2023-03-14T02:40:14;5.67;;;1.10;;
71610;SDS011;59459;51.172;6.682;2023-03-14T02:42:39;6.20;;;0.88;;
71610;SDS011;59459;51.172;6.682;2023-03-14T02:47:29;3.77;;;0.53;;
71610;SDS011;59459;51.172;6.682;2023-03-14T02:49:59;5.53;;;0.90;;
71610;SDS011;59459;51.172;6.682;2023-03-14T02:52:25;6.65;;;0.88;;
71610;SDS011;59459;51.172;6.682;2023-03-14T02:54:51;4.90;;;0.80;;
71610;SDS011;59459;51.172;6.682;2023-03-14T02:57:16;4.23;;;0.93;;
71610;SDS011;59459;51.172;6.682;2023-03-14T02:59:41;4.23;;;0.83;;
71610;SDS011;59459;51.172;6.682;2023-03-14T03:02:06;4.73;;;0.77;;
71610;SDS011;59459;51.172;6.682;2023-03-14T03:04:31;6.73;;;0.80;;
71610;SDS011;59459;51.172;6.682;2023-03-14T03:06:57;3.73;;;0.80;;
71610;SDS011;59459;51.172;6.682;2023-03-14T03:09:22;9.97;;;1.10;;
71610;SDS011;59459;51.172;6.682;2023-03-14T03:11:47;4.00;;;1.30;;
71610;SDS011;59459;51.172;6.682;2023-03-14T03:14:12;7.70;;;0.80;;
71610;SDS011;59459;51.172;6.682;2023-03-14T03:16:38;5.37;;;0.90;;
71610;SDS011;59459;51.172;6.682;2023-03-14T03:19:03;6.57;;;1.10;;
71610;SDS011;59459;51.172;6.682;2023-03-14T03:21:28;6.50;;;1.07;;
71610;SDS011;59459;51.172;6.682;2023-03-14T03:23:53;3.80;;;0.80;;
71610;SDS011;59459;51.172;6.682;2023-03-14T03:26:19;6.00;;;1.03;;
71610;SDS011;59459;51.172;6.682;2023-03-14T03:28:44;7.27;;;1.27;;
71610;SDS011;59459;51.172;6.682;2023-03-14T03:31:10;5.90;;;1.53;;
71610;SDS011;59459;51.172;6.682;2023-03-14T03:33:36;6.47;;;1.43;;
71610;SDS011;59459;51.172;6.682;2023-03-14T03:36:01;9.38;;;0.75;;
71610;SDS011;59459;51.172;6.682;2023-03-14T03:38:26;11.30;;;1.10;;
71610;SDS011;59459;51.172;6.682;2023-03-14T03:40:51;5.23;;;0.80;;
71610;SDS011;59459;51.172;6.682;2023-03-14T03:43:17;8.30;;;1.40;;
71610;SDS011;59459;51.172;6.682;2023-03-14T03:45:43;7.43;;;1.00;;
71610;SDS011;59459;51.172;6.682;2023-03-14T03:48:08;9.67;;;1.20;;
71610;SDS011;59459;51.172;6.682;2023-03-14T03:50:33;8.03;;;1.10;;
71610;SDS011;59459;51.172;6.682;2023-03-14T03:52:59;6.93;;;1.63;;
71610;SDS011;59459;51.172;6.682;2023-03-14T03:55:24;7.93;;;1.20;;
71610;SDS011;59459;51.172;6.682;2023-03-14T03:57:50;10.18;;;1.73;;
71610;SDS011;59459;51.172;6.682;2023-03-14T04:00:15;7.07;;;1.23;;
71610;SDS011;59459;51.172;6.682;2023-03-14T04:02:41;6.17;;;1.10;;
71610;SDS011;59459;51.172;6.682;2023-03-14T04:05:06;7.33;;;1.40;;
71610;SDS011;59459;51.172;6.682;2023-03-14T04:07:32;10.27;;;1.25;;
71610;SDS011;59459;51.172;6.682;2023-03-14T04:09:57;10.03;;;1.33;;
71610;SDS011;59459;51.172;6.682;2023-03-14T04:12:22;8.87;;;1.00;;
71610;SDS011;59459;51.172;6.682;2023-03-14T04:14:48;8.00;;;1.40;;
71610;SDS011;59459;51.172;6.682;2023-03-14T04:17:13;9.47;;;1.67;;
71610;SDS011;59459;51.172;6.682;2023-03-14T04:19:38;6.07;;;1.30;;
71610;SDS011;59459;51.172;6.682;2023-03-14T04:22:03;7.70;;;1.43;;
71610;SDS011;59459;51.172;6.682;2023-03-14T04:24:28;8.27;;;1.33;;
71610;SDS011;59459;51.172;6.682;2023-03-14T04:26:54;6.33;;;1.07;;
71610;SDS011;59459;51.172;6.682;2023-03-14T04:29:19;7.00;;;1.43;;
71610;SDS011;59459;51.172;6.682;2023-03-14T04:31:44;5.00;;;1.00;;
71610;SDS011;59459;51.172;6.682;2023-03-14T04:34:09;7.30;;;0.97;;
71610;SDS011;59459;51.172;6.682;2023-03-14T04:36:34;8.47;;;1.10;;
71610;SDS011;59459;51.172;6.682;2023-03-14T04:39:00;5.97;;;1.00;;
71610;SDS011;59459;51.172;6.682;2023-03-14T04:41:25;8.07;;;1.03;;
71610;SDS011;59459;51.172;6.682;2023-03-14T04:43:50;4.77;;;0.90;;
71610;SDS011;59459;51.172;6.682;2023-03-14T04:46:15;4.77;;;1.00;;
71610;SDS011;59459;51.172;6.682;2023-03-14T04:48:41;2.10;;;0.60;;
71610;SDS011;59459;51.172;6.682;2023-03-14T04:51:06;4.67;;;0.60;;
71610;SDS011;59459;51.172;6.682;2023-03-14T04:53:31;3.43;;;0.50;;
71610;SDS011;59459;51.172;6.682;2023-03-14T04:55:56;2.73;;;0.70;;
71610;SDS011;59459;51.172;6.682;2023-03-14T04:58:22;4.20;;;1.23;;
71610;SDS011;59459;51.172;6.682;2023-03-14T05:00:48;3.63;;;0.80;;
71610;SDS011;59459;51.172;6.682;2023-03-14T05:03:16;4.97;;;0.90;;
71610;SDS011;59459;51.172;6.682;2023-03-14T05:05:42;5.90;;;1.23;;
71610;SDS011;59459;51.172;6.682;2023-03-14T05:08:08;7.83;;;2.03;;
71610;SDS011;59459;51.172;6.682;2023-03-14T05:10:34;6.43;;;1.40;;
71610;SDS011;59459;51.172;6.682;2023-03-14T05:12:59;2.47;;;0.53;;
71610;SDS011;59459;51.172;6.682;2023-03-14T05:15:24;5.30;;;1.60;;
71610;SDS011;59459;51.172;6.682;2023-03-14T05:17:49;1.90;;;0.40;;
71610;SDS011;59459;51.172;6.682;2023-03-14T05:20:15;7.20;;;1.20;;
71610;SDS011;59459;51.172;6.682;2023-03-14T05:22:40;6.67;;;0.90;;
71610;SDS011;59459;51.172;6.682;2023-03-14T05:25:06;7.53;;;1.00;;
71610;SDS011;59459;51.172;6.682;2023-03-14T05:27:31;2.50;;;0.63;;
71610;SDS011;59459;51.172;6.682;2023-03-14T05:29:57;5.17;;;0.77;;
71610;SDS011;59459;51.172;6.682;2023-03-14T05:32:22;6.93;;;0.87;;
71610;SDS011;59459;51.172;6.682;2023-03-14T05:34:47;7.13;;;1.20;;
71610;SDS011;59459;51.172;6.682;2023-03-14T05:37:12;5.63;;;1.53;;
71610;SDS011;59459;51.172;6.682;2023-03-14T05:39:37;6.80;;;0.90;;
71610;SDS011;59459;51.172;6.682;2023-03-14T05:42:03;2.83;;;0.57;;
71610;SDS011;59459;51.172;6.682;2023-03-14T05:44:28;7.67;;;1.67;;
71610;SDS011;59459;51.172;6.682;2023-03-14T05:46:53;2.67;;;0.50;;
71610;SDS011;59459;51.172;6.682;2023-03-14T05:49:18;5.03;;;1.00;;
71610;SDS011;59459;51.172;6.682;2023-03-14T05:51:44;6.23;;;1.10;;
71610;SDS011;59459;51.172;6.682;2023-03-14T05:54:09;5.10;;;0.93;;
71610;SDS011;59459;51.172;6.682;2023-03-14T05:56:34;6.07;;;1.40;;
71610;SDS011;59459;51.172;6.682;2023-03-14T05:58:59;6.33;;;0.77;;
71610;SDS011;59459;51.172;6.682;2023-03-14T06:01:27;3.75;;;0.95;;
71610;SDS011;59459;51.172;6.682;2023-03-14T06:03:52;3.20;;;0.73;;
71610;SDS011;59459;51.172;6.682;2023-03-14T06:06:17;1.47;;;0.53;;
71610;SDS011;59459;51.172;6.682;2023-03-14T06:08:42;2.53;;;0.60;;
71610;SDS011;59459;51.172;6.682;2023-03-14T06:11:08;2.03;;;0.40;;
71610;SDS011;59459;51.172;6.682;2023-03-14T06:13:34;3.15;;;0.68;;
71610;SDS011;59459;51.172;6.682;2023-03-14T06:15:59;2.43;;;0.40;;
71610;SDS011;59459;51.172;6.682;2023-03-14T06:18:24;2.80;;;0.50;;
71610;SDS011;59459;51.172;6.682;2023-03-14T06:20:52;4.27;;;0.80;;
71610;SDS011;59459;51.172;6.682;2023-03-14T06:23:18;3.42;;;0.88;;
71610;SDS011;59459;51.172;6.682;2023-03-14T06:25:43;1.60;;;0.50;;
71610;SDS011;59459;51.172;6.682;2023-03-14T06:28:08;4.37;;;0.63;;
71610;SDS011;59459;51.172;6.682;2023-03-14T06:30:33;2.57;;;0.50;;
71610;SDS011;59459;51.172;6.682;2023-03-14T06:32:59;2.03;;;0.60;;
71610;SDS011;59459;51.172;6.682;2023-03-14T06:35:24;1.43;;;0.40;;
71610;SDS011;59459;51.172;6.682;2023-03-14T06:37:49;2.60;;;0.50;;
71610;SDS011;59459;51.172;6.682;2023-03-14T06:40:14;1.63;;;0.40;;
71610;SDS011;59459;51.172;6.682;2023-03-14T06:42:45;1.63;;;0.30;;
71610;SDS011;59459;51.172;6.682;2023-03-14T06:45:10;2.47;;;0.40;;
71610;SDS011;59459;51.172;6.682;2023-03-14T06:47:36;1.00;;;0.38;;
71610;SDS011;59459;51.172;6.682;2023-03-14T06:50:03;2.40;;;0.50;;
71610;SDS011;59459;51.172;6.682;2023-03-14T06:52:28;2.10;;;0.60;;
71610;SDS011;59459;51.172;6.682;2023-03-14T06:54:53;1.93;;;0.80;;
71610;SDS011;59459;51.172;6.682;2023-03-14T06:57:18;0.80;;;0.40;;
71610;SDS011;59459;51.172;6.682;2023-03-14T06:59:44;0.90;;;0.30;;
71610;SDS011;59459;51.172;6.682;2023-03-14T07:02:12;3.23;;;0.30;;
71610;SDS011;59459;51.172;6.682;2023-03-14T07:04:37;0.30;;;0.20;;
71610;SDS011;59459;51.172;6.682;2023-03-14T07:07:03;2.67;;;0.47;;
71610;SDS011;59459;51.172;6.682;2023-03-14T07:09:28;1.57;;;0.20;;
71610;SDS011;59459;51.172;6.682;2023-03-14T07:11:53;0.47;;;0.30;;
71610;SDS011;59459;51.172;6.682;2023-03-14T07:14:18;3.07;;;0.30;;
71610;SDS011;59459;51.172;6.682;2023-03-14T07:16:43;1.90;;;0.40;;
71610;SDS011;59459;51.172;6.682;2023-03-14T07:19:10;1.00;;;0.40;;
71610;SDS011;59459;51.172;6.682;2023-03-14T07:21:35;1.57;;;0.30;;
71610;SDS011;59459;51.172;6.682;2023-03-14T07:24:00;3.57;;;0.60;;
71610;SDS011;59459;51.172;6.682;2023-03-14T07:26:25;1.20;;;0.40;;
71610;SDS011;59459;51.172;6.682;2023-03-14T07:28:51;0.93;;;0.40;;
71610;SDS011;59459;51.172;6.682;2023-03-14T07:31:16;2.30;;;0.53;;
71610;SDS011;59459;51.172;6.682;2023-03-14T07:33:41;1.77;;;0.60;;
71610;SDS011;59459;51.172;6.682;2023-03-14T07:36:07;0.57;;;0.30;;
71610;SDS011;59459;51.172;6.682;2023-03-14T07:38:32;0.97;;;0.40;;
71610;SDS011;59459;51.172;6.682;2023-03-14T07:40:58;2.00;;;0.57;;
71610;SDS011;59459;51.172;6.682;2023-03-14T07:43:23;1.48;;;0.60;;
71610;SDS011;59459;51.172;6.682;2023-03-14T07:45:48;1.67;;;0.50;;
71610;SDS011;59459;51.172;6.682;2023-03-14T07:48:14;1.93;;;0.40;;
71610;SDS011;59459;51.172;6.682;2023-03-14T07:50:39;2.43;;;0.40;;
71610;SDS011;59459;51.172;6.682;2023-03-14T07:53:04;1.63;;;0.60;;
71610;SDS011;59459;51.172;6.682;2023-03-14T07:55:29;1.47;;;0.47;;
71610;SDS011;59459;51.172;6.682;2023-03-14T07:57:54;1.07;;;0.40;;
71610;SDS011;59459;51.172;6.682;2023-03-14T08:00:20;1.10;;;0.40;;
71610;SDS011;59459;51.172;6.682;2023-03-14T08:02:45;1.63;;;0.40;;
71610;SDS011;59459;51.172;6.682;2023-03-14T08:05:10;1.37;;;0.40;;
71610;SDS011;59459;51.172;6.682;2023-03-14T08:07:35;1.07;;;0.40;;
71610;SDS011;59459;51.172;6.682;2023-03-14T08:10:01;2.17;;;0.40;;
71610;SDS011;59459;51.172;6.682;2023-03-14T08:12:26;1.53;;;0.43;;
71610;SDS011;59459;51.172;6.682;2023-03-14T08:14:51;0.90;;;0.40;;
71610;SDS011;59459;51.172;6.682;2023-03-14T08:17:16;1.37;;;0.70;;
71610;SDS011;59459;51.172;6.682;2023-03-14T08:19:41;1.50;;;0.40;;
71610;SDS011;59459;51.172;6.682;2023-03-14T08:22:07;1.40;;;0.40;;
71610;SDS011;59459;51.172;6.682;2023-03-14T08:24:32;1.60;;;0.43;;
71610;SDS011;59459;51.172;6.682;2023-03-14T08:26:57;1.53;;;0.47;;
71610;SDS011;59459;51.172;6.682;2023-03-14T08:29:23;1.37;;;0.50;;
71610;SDS011;59459;51.172;6.682;2023-03-14T08:31:48;1.77;;;0.70;;
71610;SDS011;59459;51.172;6.682;2023-03-14T08:34:14;2.08;;;0.50;;
71610;SDS011;59459;51.172;6.682;2023-03-14T08:36:40;2.07;;;0.50;;
71610;SDS011;59459;51.172;6.682;2023-03-14T08:39:05;1.43;;;0.67;;
71610;SDS011;59459;51.172;6.682;2023-03-14T08:41:32;2.13;;;0.75;;
71610;SDS011;59459;51.172;6.682;2023-03-14T08:43:57;2.23;;;0.63;;
71610;SDS011;59459;51.172;6.682;2023-03-14T08:46:22;4.50;;;0.57;;
71610;SDS011;59459;51.172;6.682;2023-03-14T08:48:47;3.53;;;0.70;;
71610;SDS011;59459;51.172;6.682;2023-03-14T08:51:13;3.67;;;0.67;;
71610;SDS011;59459;51.172;6.682;2023-03-14T08:53:39;2.33;;;0.70;;
71610;SDS011;59459;51.172;6.682;2023-03-14T08:56:04;1.90;;;0.60;;
71610;SDS011;59459;51.172;6.682;2023-03-14T08:58:31;3.00;;;0.70;;
71610;SDS011;59459;51.172;6.682;2023-03-14T09:00:56;3.03;;;0.60;;
71610;SDS011;59459;51.172;6.682;2023-03-14T09:03:21;2.37;;;0.77;;
71610;SDS011;59459;51.172;6.682;2023-03-14T09:05:48;3.05;;;0.80;;
71610;SDS011;59459;51.172;6.682;2023-03-14T09:08:13;3.13;;;0.90;;
71610;SDS011;59459;51.172;6.682;2023-03-14T09:10:38;2.53;;;0.43;;
71610;SDS011;59459;51.172;6.682;2023-03-14T09:13:03;1.93;;;0.40;;
71610;SDS011;59459;51.172;6.682;2023-03-14T09:15:29;1.70;;;0.60;;
71610;SDS011;59459;51.172;6.682;2023-03-14T09:17:54;1.47;;;0.40;;
71610;SDS011;59459;51.172;6.682;2023-03-14T09:20:19;1.37;;;0.40;;
71610;SDS011;59459;51.172;6.682;2023-03-14T09:22:44;2.07;;;0.40;;
71610;SDS011;59459;51.172;6.682;2023-03-14T09:25:10;0.80;;;0.40;;
71610;SDS011;59459;51.172;6.682;2023-03-14T09:27:35;1.67;;;0.50;;
71610;SDS011;59459;51.172;6.682;2023-03-14T09:30:01;0.80;;;0.30;;
71610;SDS011;59459;51.172;6.682;2023-03-14T09:32:26;1.33;;;0.30;;
71610;SDS011;59459;51.172;6.682;2023-03-14T09:34:51;0.83;;;0.40;;
71610;SDS011;59459;51.172;6.682;2023-03-14T09:37:16;1.30;;;0.30;;
71610;SDS011;59459;51.172;6.682;2023-03-14T09:39:42;1.30;;;0.53;;
71610;SDS011;59459;51.172;6.682;2023-03-14T09:42:08;0.88;;;0.40;;
71610;SDS011;59459;51.172;6.682;2023-03-14T09:44:37;2.10;;;0.33;;
71610;SDS011;59459;51.172;6.682;2023-03-14T09:47:05;1.08;;;0.50;;
71610;SDS011;59459;51.172;6.682;2023-03-14T09:49:31;1.55;;;0.50;;
71610;SDS011;59459;51.172;6.682;2023-03-14T09:51:58;1.40;;;0.45;;
71610;SDS011;59459;51.172;6.682;2023-03-14T09:54:29;2.17;;;0.60;;
71610;SDS011;59459;51.172;6.682;2023-03-14T09:56:55;1.37;;;0.50;;
71610;SDS011;59459;51.172;6.682;2023-03-14T09:59:20;2.23;;;0.43;;
71610;SDS011;59459;51.172;6.682;2023-03-14T10:01:45;2.70;;;0.70;;
71610;SDS011;59459;51.172;6.682;2023-03-14T10:04:13;0.77;;;0.30;;
71610;SDS011;59459;51.172;6.682;2023-03-14T10:06:40;2.63;;;0.33;;
71610;SDS011;59459;51.172;6.682;2023-03-14T10:09:05;1.80;;;0.40;;
71610;SDS011;59459;51.172;6.682;2023-03-14T10:11:30;6.63;;;1.02;;
71610;SDS011;59459;51.172;6.682;2023-03-14T10:14:09;2.10;;;0.70;;
71610;SDS011;59459;51.172;6.682;2023-03-14T10:16:45;2.25;;;0.70;;
71610;SDS011;59459;51.172;6.682;2023-03-14T10:19:12;2.67;;;0.60;;
71610;SDS011;59459;51.172;6.682;2023-03-14T10:21:39;3.33;;;0.88;;
71610;SDS011;59459;51.172;6.682;2023-03-14T10:26:35;3.92;;;1.13;;
71610;SDS011;59459;51.172;6.682;2023-03-14T10:29:11;3.47;;;0.97;;
71610;SDS011;59459;51.172;6.682;2023-03-14T10:31:46;2.33;;;0.80;;
71610;SDS011;59459;51.172;6.682;2023-03-14T10:34:14;3.58;;;1.08;;
71610;SDS011;59459;51.172;6.682;2023-03-14T10:36:40;5.22;;;1.40;;
71610;SDS011;59459;51.172;6.682;2023-03-14T10:41:49;3.13;;;1.48;;
71610;SDS011;59459;51.172;6.682;2023-03-14T10:44:15;4.57;;;1.93;;
71610;SDS011;59459;51.172;6.682;2023-03-14T10:46:42;6.15;;;2.08;;
71610;SDS011;59459;51.172;6.682;2023-03-14T10:49:07;5.40;;;1.90;;
71610;SDS011;59459;51.172;6.682;2023-03-14T10:51:33;5.70;;;1.80;;
71610;SDS011;59459;51.172;6.682;2023-03-14T10:56:24;4.83;;;1.60;;
71610;SDS011;59459;51.172;6.682;2023-03-14T10:58:50;5.83;;;1.50;;
71610;SDS011;59459;51.172;6.682;2023-03-14T11:03:57;4.60;;;1.30;;
71610;SDS011;59459;51.172;6.682;2023-03-14T11:06:39;4.35;;;1.50;;
71610;SDS011;59459;51.172;6.682;2023-03-14T11:11:31;2.80;;;0.93;;
71610;SDS011;59459;51.172;6.682;2023-03-14T11:19:17;2.22;;;0.75;;
71610;SDS011;59459;51.172;6.682;2023-03-14T11:24:41;4.47;;;1.20;;
71610;SDS011;59459;51.172;6.682;2023-03-14T11:32:35;3.85;;;1.20;;
71610;SDS011;59459;51.172;6.682;2023-03-14T11:35:11;4.13;;;1.40;;
71610;SDS011;59459;51.172;6.682;2023-03-14T11:37:45;6.07;;;0.93;;
71610;SDS011;59459;51.172;6.682;2023-03-14T11:40:14;3.53;;;0.98;;
71610;SDS011;59459;51.172;6.682;2023-03-14T11:42:41;3.65;;;0.70;;
71610;SDS011;59459;51.172;6.682;2023-03-14T11:45:13;4.70;;;1.10;;
71610;SDS011;59459;51.172;6.682;2023-03-14T11:47:51;4.07;;;0.93;;
71610;SDS011;59459;51.172;6.682;2023-03-14T11:50:22;3.63;;;0.93;;
71610;SDS011;59459;51.172;6.682;2023-03-14T11:52:55;2.53;;;0.88;;
71610;SDS011;59459;51.172;6.682;2023-03-14T11:55:29;4.95;;;0.75;;
71610;SDS011;59459;51.172;6.682;2023-03-14T11:58:01;2.38;;;0.85;;
71610;SDS011;59459;51.172;6.682;2023-03-14T12:00:33;2.40;;;0.93;;
71610;SDS011;59459;51.172;6.682;2023-03-14T12:03:17;5.67;;;0.70;;
71610;SDS011;59459;51.172;6.682;2023-03-14T12:06:02;2.47;;;0.50;;
71610;SDS011;59459;51.172;6.682;2023-03-14T12:09:05;2.50;;;0.50;;
71610;SDS011;59459;51.172;6.682;2023-03-14T12:13:58;5.43;;;0.60;;
71610;SDS011;59459;51.172;6.682;2023-03-14T12:16:33;5.75;;;0.60;;
71610;SDS011;59459;51.172;6.682;2023-03-14T12:19:13;7.00;;;0.90;;
71610;SDS011;59459;51.172;6.682;2023-03-14T12:24:19;3.63;;;0.80;;
71610;SDS011;59459;51.172;6.682;2023-03-14T12:26:57;4.68;;;0.60;;
71610;SDS011;59459;51.172;6.682;2023-03-14T12:29:25;6.47;;;0.60;;
71610;SDS011;59459;51.172;6.682;2023-03-14T12:34:26;3.67;;;0.60;;
71610;SDS011;59459;51.172;6.682;2023-03-14T12:44:51;3.40;;;0.70;;
71610;SDS011;59459;51.172;6.682;2023-03-14T12:49:50;2.85;;;0.50;;
71610;SDS011;59459;51.172;6.682;2023-03-14T12:52:22;3.80;;;0.60;;
71610;SDS011;59459;51.172;6.682;2023-03-14T13:00:29;2.43;;;0.50;;
71610;SDS011;59459;51.172;6.682;2023-03-14T13:03:03;5.15;;;0.65;;
71610;SDS011;59459;51.172;6.682;2023-03-14T13:05:37;2.80;;;0.95;;
71610;SDS011;59459;51.172;6.682;2023-03-14T13:08:35;5.25;;;0.50;;
71610;SDS011;59459;51.172;6.682;2023-03-14T13:11:05;7.82;;;0.60;;
71610;SDS011;59459;51.172;6.682;2023-03-14T13:13:33;5.53;;;0.93;;
71610;SDS011;59459;51.172;6.682;2023-03-14T13:16:02;10.75;;;0.90;;
71610;SDS011;59459;51.172;6.682;2023-03-14T13:18:34;8.38;;;1.40;;
71610;SDS011;59459;51.172;6.682;2023-03-14T13:23:34;7.25;;;1.40;;
71610;SDS011;59459;51.172;6.682;2023-03-14T13:26:01;8.13;;;1.60;;
71610;SDS011;59459;51.172;6.682;2023-03-14T13:28:29;11.50;;;1.55;;
71610;SDS011;59459;51.172;6.682;2023-03-14T13:31:00;8.75;;;1.23;;
71610;SDS011;59459;51.172;6.682;2023-03-14T13:33:25;9.45;;;1.40;;
71610;SDS011;59459;51.172;6.682;2023-03-14T13:38:21;6.15;;;1.20;;
71610;SDS011;59459;51.172;6.682;2023-03-14T13:40:47;9.40;;;1.23;;
71610;SDS011;59459;51.172;6.682;2023-03-14T13:45:44;10.00;;;1.23;;
71610;SDS011;59459;51.172;6.682;2023-03-14T13:48:16;9.43;;;1.90;;
71610;SDS011;59459;51.172;6.682;2023-03-14T13:53:43;9.20;;;1.23;;
71610;SDS011;59459;51.172;6.682;2023-03-14T13:56:09;11.52;;;1.50;;
71610;SDS011;59459;51.172;6.682;2023-03-14T13:58:35;8.48;;;1.58;;
71610;SDS011;59459;51.172;6.682;2023-03-14T14:01:03;11.02;;;1.63;;
71610;SDS011;59459;51.172;6.682;2023-03-14T14:03:33;10.82;;;1.48;;
71610;SDS011;59459;51.172;6.682;2023-03-14T14:05:59;8.23;;;1.30;;
71610;SDS011;59459;51.172;6.682;2023-03-14T14:08:24;11.73;;;1.80;;
71610;SDS011;59459;51.172;6.682;2023-03-14T14:10:50;11.15;;;1.40;;
71610;SDS011;59459;51.172;6.682;2023-03-14T14:13:18;10.20;;;1.77;;
71610;SDS011;59459;51.172;6.682;2023-03-14T14:15:46;8.23;;;2.10;;
71610;SDS011;59459;51.172;6.682;2023-03-14T14:18:13;10.95;;;1.23;;
71610;SDS011;59459;51.172;6.682;2023-03-14T14:20:44;11.63;;;1.00;;
71610;SDS011;59459;51.172;6.682;2023-03-14T14:23:11;9.90;;;1.33;;
71610;SDS011;59459;51.172;6.682;2023-03-14T14:25:36;11.45;;;1.67;;
71610;SDS011;59459;51.172;6.682;2023-03-14T14:28:21;12.00;;;1.50;;
71610;SDS011;59459;51.172;6.682;2023-03-14T14:30:53;9.65;;;1.38;;
71610;SDS011;59459;51.172;6.682;2023-03-14T14:33:23;12.23;;;1.40;;
71610;SDS011;59459;51.172;6.682;2023-03-14T14:35:53;11.50;;;1.87;;
71610;SDS011;59459;51.172;6.682;2023-03-14T14:38:19;8.10;;;1.00;;
71610;SDS011;59459;51.172;6.682;2023-03-14T14:40:45;11.93;;;1.50;;
71610;SDS011;59459;51.172;6.682;2023-03-14T14:43:11;14.32;;;1.65;;
71610;SDS011;59459;51.172;6.682;2023-03-14T14:45:39;10.20;;;1.30;;
71610;SDS011;59459;51.172;6.682;2023-03-14T14:48:09;10.20;;;1.27;;
71610;SDS011;59459;51.172;6.682;2023-03-14T14:53:13;8.07;;;1.63;;
71610;SDS011;59459;51.172;6.682;2023-03-14T14:55:44;6.43;;;0.70;;
71610;SDS011;59459;51.172;6.682;2023-03-14T15:00:49;8.13;;;1.10;;
71610;SDS011;59459;51.172;6.682;2023-03-14T15:03:15;10.23;;;1.17;;
71610;SDS011;59459;51.172;6.682;2023-03-14T15:05:41;8.80;;;1.00;;
71610;SDS011;59459;51.172;6.682;2023-03-14T15:08:12;4.10;;;0.80;;
71610;SDS011;59459;51.172;6.682;2023-03-14T15:10:37;9.00;;;1.17;;
71610;SDS011;59459;51.172;6.682;2023-03-14T15:13:02;7.38;;;0.80;;
71610;SDS011;59459;51.172;6.682;2023-03-14T15:15:28;5.20;;;0.90;;
71610;SDS011;59459;51.172;6.682;2023-03-14T15:17:53;11.43;;;0.80;;
71610;SDS011;59459;51.172;6.682;2023-03-14T15:20:18;5.57;;;0.70;;
71610;SDS011;59459;51.172;6.682;2023-03-14T15:22:44;5.23;;;0.90;;
71610;SDS011;59459;51.172;6.682;2023-03-14T15:25:10;14.40;;;1.57;;
71610;SDS011;59459;51.172;6.682;2023-03-14T15:27:35;6.93;;;0.90;;
71610;SDS011;59459;51.172;6.682;2023-03-14T15:30:01;9.17;;;1.50;;
71610;SDS011;59459;51.172;6.682;2023-03-14T15:32:27;4.50;;;0.93;;
71610;SDS011;59459;51.172;6.682;2023-03-14T15:34:52;5.50;;;0.63;;
71610;SDS011;59459;51.172;6.682;2023-03-14T15:37:19;7.53;;;1.02;;
71610;SDS011;59459;51.172;6.682;2023-03-14T15:39:44;6.30;;;0.90;;
71610;SDS011;59459;51.172;6.682;2023-03-14T15:42:09;6.83;;;1.00;;
71610;SDS011;59459;51.172;6.682;2023-03-14T15:44:34;9.60;;;1.03;;
71610;SDS011;59459;51.172;6.682;2023-03-14T15:47:00;7.23;;;0.73;;
71610;SDS011;59459;51.172;6.682;2023-03-14T15:49:25;8.25;;;1.10;;
71610;SDS011;59459;51.172;6.682;2023-03-14T15:51:50;7.63;;;1.00;;
71610;SDS011;59459;51.172;6.682;2023-03-14T15:54:15;5.60;;;0.90;;
71610;SDS011;59459;51.172;6.682;2023-03-14T15:56:41;3.50;;;1.00;;
71610;SDS011;59459;51.172;6.682;2023-03-14T15:59:06;5.77;;;0.83;;